createdAt,value
2022-08-24T00:00:31.792Z,98660.97
2022-08-24T00:02:58.592Z,98660.44
2022-08-24T00:05:25.294Z,98666.53
2022-08-24T00:07:51.935Z,98665.19
2022-08-24T00:10:21.154Z,98666.28
2022-08-24T00:12:47.936Z,98654.22
2022-08-24T00:15:15.695Z,98655.03
2022-08-24T00:17:42.971Z,98652.91
2022-08-24T00:20:11.510Z,98648.06
2022-08-24T00:22:39.019Z,98645.66
2022-08-24T00:25:06.111Z,98659.84
2022-08-24T00:27:32.912Z,98651.28
2022-08-24T00:29:59.499Z,98658.75
2022-08-24T00:32:26.218Z,98648.03
2022-08-24T00:34:58.616Z,98648.34
2022-08-24T00:37:28.479Z,98646.19
2022-08-24T00:39:56.110Z,98647.25
2022-08-24T00:42:23.398Z,98645.06
2022-08-24T00:44:50.001Z,98647.22
2022-08-24T00:47:25.828Z,98647.47
2022-08-24T00:50:01.208Z,98648.28
2022-08-24T00:52:33.418Z,98651.78
2022-08-24T00:55:13.133Z,98641.88
2022-08-24T00:57:43.178Z,98641.06
2022-08-24T01:00:16.348Z,98649.66
2022-08-24T01:02:45.712Z,98648.03
2022-08-24T01:05:13.614Z,98650.22
2022-08-24T01:07:41.254Z,98652.06
2022-08-24T01:10:14.144Z,98647.53
2022-08-24T01:12:48.225Z,98656.66
2022-08-24T01:15:29.787Z,98648.34
2022-08-24T01:18:12.167Z,98651.28
2022-08-24T01:20:39.046Z,98642.69
2022-08-24T01:23:09.447Z,98641.91
2022-08-24T01:25:37.671Z,98642.97
2022-08-24T01:28:10.397Z,98646.44
2022-08-24T01:30:37.397Z,98645.91
2022-08-24T01:33:08.973Z,98648.00
2022-08-24T01:35:38.238Z,98650.41
2022-08-24T01:38:08.736Z,98649.09
2022-08-24T01:40:53.658Z,98653.63
2022-08-24T01:43:20.357Z,98645.34
2022-08-24T01:45:46.921Z,98646.94
2022-08-24T01:48:15.335Z,98651.25
2022-08-24T01:50:49.676Z,98642.13
2022-08-24T01:53:16.659Z,98644.53
2022-08-24T01:55:43.867Z,98642.41
2022-08-24T01:58:10.493Z,98644.78
2022-08-24T02:00:37.732Z,98640.22
2022-08-24T02:03:05.184Z,98650.84
2022-08-24T02:05:32.125Z,98650.31
2022-08-24T02:07:58.923Z,98656.47
2022-08-24T02:10:26.470Z,98654.31
2022-08-24T02:13:00.669Z,98655.38
2022-08-24T02:15:34.743Z,98662.38
2022-08-24T02:18:01.558Z,98661.34
2022-08-24T02:20:28.537Z,98663.50
2022-08-24T02:22:57.309Z,98665.38
2022-08-24T02:25:25.030Z,98663.19
2022-08-24T02:27:51.965Z,98669.38
2022-08-24T02:30:19.318Z,98668.47
2022-08-24T02:32:45.919Z,98668.44
2022-08-24T02:35:12.723Z,98678.56
2022-08-24T02:37:43.532Z,98674.00
2022-08-24T02:40:12.543Z,98678.81
2022-08-24T02:42:39.761Z,98678.28
2022-08-24T02:45:08.016Z,98673.22
2022-08-24T02:47:38.851Z,98664.41
2022-08-24T02:50:08.220Z,98659.06
2022-08-24T02:52:37.205Z,98670.22
2022-08-24T02:55:04.639Z,98667.56
2022-08-24T02:57:31.425Z,98665.72
2022-08-24T02:59:58.089Z,98655.25
2022-08-24T03:02:24.777Z,98667.50
2022-08-24T03:04:51.406Z,98670.41
2022-08-24T03:07:18.080Z,98661.84
2022-08-24T03:09:44.718Z,98668.50
2022-08-24T03:12:11.539Z,98668.72
2022-08-24T03:14:38.188Z,98660.06
2022-08-24T03:17:05.292Z,98662.97
2022-08-24T03:19:31.895Z,98668.38
2022-08-24T03:21:58.530Z,98660.06
2022-08-24T03:24:25.091Z,98664.81
2022-08-24T03:26:52.475Z,98661.81
2022-08-24T03:29:19.191Z,98660.72
2022-08-24T03:31:46.642Z,98659.31
2022-08-24T03:34:13.594Z,98661.69
2022-08-24T03:36:41.735Z,98664.66
2022-08-24T03:39:08.371Z,98664.97
2022-08-24T03:41:35.401Z,98666.59
2022-08-24T03:44:04.223Z,98669.50
2022-08-24T03:46:36.810Z,98668.94
2022-08-24T03:49:08.710Z,98673.28
2022-08-24T03:51:37.012Z,98677.31
2022-08-24T03:54:05.817Z,98673.88
2022-08-24T03:56:32.540Z,98681.88
2022-08-24T03:58:59.841Z,98677.38
2022-08-24T04:01:27.032Z,98681.59
2022-08-24T04:03:55.232Z,98683.16
2022-08-24T04:06:22.749Z,98674.34
2022-08-24T04:08:50.025Z,98680.53
2022-08-24T04:11:20.035Z,98676.25
2022-08-24T04:13:48.152Z,98672.25
2022-08-24T04:16:17.692Z,98677.00
2022-08-24T04:18:44.767Z,98682.34
2022-08-24T04:21:29.247Z,98682.91
2022-08-24T04:23:57.399Z,98683.16
2022-08-24T04:26:43.763Z,98692.78
2022-08-24T04:29:14.778Z,98688.53
2022-08-24T04:31:43.059Z,98690.72
2022-08-24T04:34:10.592Z,98693.69
2022-08-24T04:36:37.338Z,98692.88
2022-08-24T04:39:05.337Z,98699.59
2022-08-24T04:41:32.004Z,98712.13
2022-08-24T04:43:59.750Z,98718.84
2022-08-24T04:46:27.579Z,98708.97
2022-08-24T04:48:54.735Z,98722.06
2022-08-24T04:51:21.417Z,98728.47
2022-08-24T04:53:49.627Z,98728.16
2022-08-24T04:56:20.158Z,98731.91
2022-08-24T04:58:47.257Z,98722.03
2022-08-24T05:01:19.320Z,98726.81
2022-08-24T05:03:49.211Z,98728.66
2022-08-24T05:06:18.591Z,98726.56
2022-08-24T05:08:47.341Z,98731.91
2022-08-24T05:11:15.196Z,98733.00
2022-08-24T05:13:41.864Z,98731.72
2022-08-24T05:16:10.676Z,98734.63
2022-08-24T05:18:37.883Z,98736.00
2022-08-24T05:21:12.241Z,98732.31
2022-08-24T05:23:40.169Z,98732.59
2022-08-24T05:26:12.746Z,98729.94
2022-08-24T05:28:39.944Z,98738.75
2022-08-24T05:31:20.100Z,98730.25
2022-08-24T05:33:48.282Z,98734.03
2022-08-24T05:36:19.251Z,98732.19
2022-08-24T05:38:47.895Z,98737.03
2022-08-24T05:41:15.800Z,98731.19
2022-08-24T05:43:43.515Z,98731.47
2022-08-24T05:46:10.243Z,98737.41
2022-08-24T05:48:37.791Z,98735.06
2022-08-24T05:51:05.982Z,98738.06
2022-08-24T05:53:33.281Z,98737.31
2022-08-24T05:56:05.231Z,98745.88
2022-08-24T05:58:31.945Z,98741.34
2022-08-24T06:01:00.079Z,98737.91
2022-08-24T06:03:27.173Z,98745.41
2022-08-24T06:05:55.105Z,98742.75
2022-08-24T06:08:22.040Z,98737.72
2022-08-24T06:10:48.875Z,98737.16
2022-08-24T06:13:16.904Z,98722.16
2022-08-24T06:15:51.119Z,98728.63
2022-08-24T06:18:30.626Z,98718.63
2022-08-24T06:20:57.816Z,98719.38
2022-08-24T06:23:24.953Z,98714.06
2022-08-24T06:26:07.176Z,98714.16
2022-08-24T06:28:33.759Z,98704.47
2022-08-24T06:31:07.435Z,98710.97
2022-08-24T06:33:34.096Z,98702.16
2022-08-24T06:36:00.931Z,98704.63
2022-08-24T06:38:27.739Z,98711.06
2022-08-24T06:40:54.365Z,98703.91
2022-08-24T06:43:20.996Z,98700.75
2022-08-24T06:45:47.625Z,98703.13
2022-08-24T06:48:14.337Z,98705.03
2022-08-24T06:50:41.134Z,98700.44
2022-08-24T06:53:08.039Z,98699.91
2022-08-24T06:55:34.919Z,98693.50
2022-08-24T06:58:02.656Z,98695.38
2022-08-24T07:00:32.476Z,98706.09
2022-08-24T07:02:59.091Z,98707.16
2022-08-24T07:05:26.022Z,98712.53
2022-08-24T07:07:53.487Z,98714.16
2022-08-24T07:10:22.941Z,98716.56
2022-08-24T07:12:49.682Z,98721.38
2022-08-24T07:15:16.720Z,98724.03
2022-08-24T07:17:43.360Z,98717.59
2022-08-24T07:20:10.725Z,98722.16
2022-08-24T07:22:37.332Z,98718.94
2022-08-24T07:25:04.974Z,98717.38
2022-08-24T07:27:31.693Z,98720.34
2022-08-24T07:30:23.257Z,98711.75
2022-08-24T07:32:44.831Z,98713.34
2022-08-24T07:35:11.435Z,98707.44
2022-08-24T07:37:41.486Z,98706.34
2022-08-24T07:40:09.342Z,98711.44
2022-08-24T07:42:36.219Z,98712.78
2022-08-24T07:45:03.725Z,98718.72
2022-08-24T07:47:40.681Z,98714.97
2022-08-24T07:50:13.274Z,98721.34
2022-08-24T07:52:40.031Z,98722.41
2022-08-24T07:55:06.930Z,98719.66
2022-08-24T07:57:33.629Z,98712.44
2022-08-24T08:00:01.035Z,98719.91
2022-08-24T08:02:30.794Z,98714.22
2022-08-24T08:05:03.495Z,98716.84
2022-08-24T08:07:31.098Z,98714.16
2022-08-24T08:09:57.885Z,98717.38
2022-08-24T08:12:24.630Z,98717.63
2022-08-24T08:14:51.238Z,98720.53
2022-08-24T08:17:17.845Z,98722.69
2022-08-24T08:19:44.595Z,98723.53
2022-08-24T08:22:26.506Z,98721.69
2022-08-24T08:24:53.082Z,98724.84
2022-08-24T08:27:21.703Z,98729.16
2022-08-24T08:29:49.046Z,98723.28
2022-08-24T08:32:17.260Z,98726.91
2022-08-24T08:34:44.929Z,98727.78
2022-08-24T08:37:12.799Z,98724.31
2022-08-24T08:39:40.630Z,98724.81
2022-08-24T08:42:13.696Z,98730.19
2022-08-24T08:45:03.207Z,98725.81
2022-08-24T08:47:50.721Z,98728.00
2022-08-24T08:50:23.992Z,98728.22
2022-08-24T08:53:21.104Z,98731.63
2022-08-24T08:55:59.957Z,98734.13
2022-08-24T08:58:57.701Z,98730.75
2022-08-24T09:01:48.005Z,98732.75
2022-08-24T09:04:31.810Z,98728.03
2022-08-24T09:07:14.183Z,98731.13
2022-08-24T09:09:48.549Z,98723.03
2022-08-24T09:12:36.730Z,98718.97
2022-08-24T09:15:25.291Z,98720.34
2022-08-24T09:18:08.412Z,98729.31
2022-08-24T09:20:50.471Z,98730.19
2022-08-24T09:23:19.113Z,98731.53
2022-08-24T09:25:59.586Z,98719.56
2022-08-24T09:28:43.743Z,98719.94
2022-08-24T09:31:41.487Z,98721.38
2022-08-24T09:34:18.630Z,98707.25
2022-08-24T09:36:54.063Z,98712.81
2022-08-24T09:39:21.783Z,98716.09
2022-08-24T09:42:25.656Z,98710.34
2022-08-24T09:45:22.722Z,98712.50
2022-08-24T09:48:05.515Z,98703.22
2022-08-24T09:51:02.707Z,98708.53
2022-08-24T09:53:46.794Z,98708.84
2022-08-24T09:56:29.594Z,98711.41
2022-08-24T09:59:20.488Z,98710.50
2022-08-24T10:02:06.061Z,98704.69
2022-08-24T10:04:48.091Z,98700.69
2022-08-24T10:07:41.854Z,98687.06
2022-08-24T10:10:34.648Z,98690.38
2022-08-24T10:13:14.204Z,98689.28
2022-08-24T10:16:00.663Z,98685.66
2022-08-24T10:18:42.239Z,98684.19
2022-08-24T10:21:18.807Z,98682.19
2022-08-24T10:24:15.900Z,98688.19
2022-08-24T10:26:57.854Z,98686.34
2022-08-24T10:29:45.329Z,98684.97
2022-08-24T10:32:47.559Z,98678.41
2022-08-24T10:35:20.263Z,98675.22
2022-08-24T10:38:17.539Z,98676.50
2022-08-24T10:40:54.537Z,98676.56
2022-08-24T10:43:40.310Z,98673.44
2022-08-24T10:46:38.348Z,98670.78
2022-08-24T10:49:32.283Z,98668.22
2022-08-24T10:52:15.113Z,98667.91
2022-08-24T10:54:41.993Z,98672.63
2022-08-24T10:57:22.621Z,98673.34
2022-08-24T11:00:09.668Z,98671.16
2022-08-24T11:02:43.492Z,98672.31
2022-08-24T11:05:14.376Z,98669.19
2022-08-24T11:07:58.754Z,98672.50
2022-08-24T11:10:32.652Z,98669.28
2022-08-24T11:13:23.686Z,98676.41
2022-08-24T11:15:55.130Z,98682.50
2022-08-24T11:18:23.066Z,98675.59
2022-08-24T11:20:53.845Z,98677.59
2022-08-24T11:23:28.359Z,98679.50
2022-08-24T11:26:04.021Z,98682.00
2022-08-24T11:28:44.259Z,98676.59
2022-08-24T11:31:14.383Z,98674.22
2022-08-24T11:33:52.966Z,98677.09
2022-08-24T11:36:26.181Z,98669.81
2022-08-24T11:39:23.355Z,98679.81
2022-08-24T11:41:56.967Z,98679.63
2022-08-24T11:44:37.526Z,98672.50
2022-08-24T11:47:26.912Z,98674.38
2022-08-24T11:50:24.080Z,98670.53
2022-08-24T11:53:18.318Z,98668.19
2022-08-24T11:56:05.331Z,98673.19
2022-08-24T11:59:01.813Z,98673.72
2022-08-24T12:01:34.900Z,98676.91
2022-08-24T12:04:01.490Z,98682.19
2022-08-24T12:06:50.939Z,98670.81
2022-08-24T12:09:50.740Z,98677.50
2022-08-24T12:12:33.624Z,98669.19
2022-08-24T12:15:12.083Z,98668.59
2022-08-24T12:17:47.496Z,98664.47
2022-08-24T12:20:27.255Z,98659.66
2022-08-24T12:22:59.088Z,98661.25
2022-08-24T12:25:45.185Z,98662.13
2022-08-24T12:28:14.963Z,98655.72
2022-08-24T12:30:41.662Z,98655.78
2022-08-24T12:33:13.249Z,98658.63
2022-08-24T12:35:45.176Z,98662.22
2022-08-24T12:38:19.924Z,98656.78
2022-08-24T12:40:56.481Z,98659.94
2022-08-24T12:43:38.055Z,98655.38
2022-08-24T12:46:06.842Z,98654.84
2022-08-24T12:48:42.724Z,98658.09
2022-08-24T12:51:24.617Z,98648.06
2022-08-24T12:54:07.528Z,98653.25
2022-08-24T12:57:02.817Z,98646.75
2022-08-24T12:59:31.851Z,98648.47
2022-08-24T13:02:07.400Z,98640.41
2022-08-24T13:04:40.309Z,98647.81
2022-08-24T13:07:26.189Z,98643.53
2022-08-24T13:09:52.711Z,98646.94
2022-08-24T13:12:54.450Z,98647.38
2022-08-24T13:15:46.283Z,98642.19
2022-08-24T13:18:12.927Z,98637.81
2022-08-24T13:20:58.095Z,98636.50
2022-08-24T13:23:25.164Z,98639.50
2022-08-24T13:25:54.150Z,98633.63
2022-08-24T13:28:20.871Z,98632.63
2022-08-24T13:31:02.960Z,98639.47
2022-08-24T13:33:44.984Z,98634.06
2022-08-24T13:36:42.670Z,98635.16
2022-08-24T13:39:37.386Z,98637.66
2022-08-24T13:42:19.527Z,98631.50
2022-08-24T13:45:02.603Z,98632.78
2022-08-24T13:47:29.215Z,98628.66
2022-08-24T13:50:12.175Z,98630.38
2022-08-24T13:53:04.877Z,98624.72
2022-08-24T13:55:43.747Z,98624.53
2022-08-24T13:58:39.288Z,98626.72
2022-08-24T14:01:45.255Z,98623.66
2022-08-24T14:04:27.229Z,98624.13
2022-08-24T14:07:10.202Z,98624.72
2022-08-24T14:09:53.811Z,98622.69
2022-08-24T14:12:21.537Z,98623.28
2022-08-24T14:15:06.715Z,98618.72
2022-08-24T14:18:04.128Z,98620.44
2022-08-24T14:20:30.837Z,98612.09
2022-08-24T14:23:25.902Z,98610.81
2022-08-24T14:26:27.739Z,98615.88
2022-08-24T14:28:54.428Z,98611.38
2022-08-24T14:31:28.502Z,98608.47
2022-08-24T14:34:11.530Z,98609.72
2022-08-24T14:36:57.275Z,98608.31
2022-08-24T14:39:42.091Z,98599.97
2022-08-24T14:42:17.374Z,98603.31
2022-08-24T14:44:44.991Z,98609.47
2022-08-24T14:47:42.187Z,98613.09
2022-08-24T14:50:14.301Z,98603.50
2022-08-24T14:52:56.235Z,98606.94
2022-08-24T14:55:44.975Z,98603.00
2022-08-24T14:58:29.068Z,98606.03
2022-08-24T15:01:28.561Z,98609.50
2022-08-24T15:04:37.117Z,98602.81
2022-08-24T15:07:27.080Z,98600.09
2022-08-24T15:09:55.763Z,98600.16
2022-08-24T15:12:33.638Z,98599.97
2022-08-24T15:15:34.059Z,98598.56
2022-08-24T15:18:17.623Z,98599.06
2022-08-24T15:21:03.069Z,98601.56
2022-08-24T15:23:41.917Z,98598.38
2022-08-24T15:26:18.276Z,98596.91
2022-08-24T15:28:55.256Z,98591.44
2022-08-24T15:31:28.293Z,98593.50
2022-08-24T15:34:02.138Z,98591.94
2022-08-24T15:36:32.964Z,98588.19
2022-08-24T15:39:01.703Z,98592.13
2022-08-24T15:41:31.336Z,98595.44
2022-08-24T15:44:04.030Z,98593.25
2022-08-24T15:46:43.049Z,98589.81
2022-08-24T15:49:22.398Z,98590.63
2022-08-24T15:51:53.382Z,98586.69
2022-08-24T15:54:32.656Z,98593.06
2022-08-24T15:57:04.588Z,98589.78
2022-08-24T15:59:44.476Z,98586.88
2022-08-24T16:02:26.538Z,98585.41
2022-08-24T16:05:23.210Z,98584.31
2022-08-24T16:08:05.168Z,98578.56
2022-08-24T16:10:33.334Z,98581.31
2022-08-24T16:13:25.640Z,98575.13
2022-08-24T16:16:05.158Z,98568.44
2022-08-24T16:18:53.578Z,98574.34
2022-08-24T16:21:24.953Z,98565.44
2022-08-24T16:24:02.107Z,98561.75
2022-08-24T16:26:51.302Z,98563.38
2022-08-24T16:29:45.994Z,98561.59
2022-08-24T16:32:22.283Z,98565.38
2022-08-24T16:35:18.250Z,98561.22
2022-08-24T16:37:44.883Z,98561.53
2022-08-24T16:40:12.589Z,98567.09
2022-08-24T16:42:40.406Z,98564.19
2022-08-24T16:45:10.145Z,98574.50
2022-08-24T16:47:36.795Z,98573.94
2022-08-24T16:50:05.393Z,98572.97
2022-08-24T16:52:32.061Z,98572.16
2022-08-24T16:55:00.534Z,98572.00
2022-08-24T16:57:31.036Z,98577.03
2022-08-24T16:59:58.140Z,98582.09
2022-08-24T17:02:26.009Z,98574.91
2022-08-24T17:04:54.608Z,98581.06
2022-08-24T17:07:26.194Z,98578.00
2022-08-24T17:09:54.254Z,98574.91
2022-08-24T17:12:21.067Z,98579.31
2022-08-24T17:14:48.002Z,98574.34
2022-08-24T17:17:21.413Z,98575.09
2022-08-24T17:19:51.117Z,98574.41
2022-08-24T17:22:17.992Z,98579.94
2022-08-24T17:24:45.819Z,98581.66
2022-08-24T17:27:14.213Z,98587.66
2022-08-24T17:29:43.528Z,98575.88
2022-08-24T17:32:10.660Z,98583.31
2022-08-24T17:34:37.607Z,98588.22
2022-08-24T17:37:04.895Z,98585.91
2022-08-24T17:39:31.650Z,98586.34
2022-08-24T17:41:59.079Z,98592.38
2022-08-24T17:44:29.484Z,98593.75
2022-08-24T17:46:59.509Z,98599.59
2022-08-24T17:49:28.007Z,98605.06
2022-08-24T17:51:55.246Z,98605.78
2022-08-24T17:54:22.539Z,98603.47
2022-08-24T17:56:50.935Z,98613.00
2022-08-24T17:59:31.527Z,98607.78
2022-08-24T18:02:01.762Z,98609.28
2022-08-24T18:04:31.366Z,98617.00
2022-08-24T18:07:01.147Z,98625.28
2022-08-24T18:09:37.115Z,98613.25
2022-08-24T18:12:08.260Z,98615.34
2022-08-24T18:14:36.029Z,98617.69
2022-08-24T18:17:06.688Z,98624.34
2022-08-24T18:19:34.090Z,98629.03
2022-08-24T18:22:01.887Z,98630.72
2022-08-24T18:24:32.466Z,98631.00
2022-08-24T18:27:03.129Z,98637.38
2022-08-24T18:29:39.264Z,98642.25
2022-08-24T18:32:07.211Z,98642.34
2022-08-24T18:34:34.659Z,98640.88
2022-08-24T18:37:01.580Z,98637.47
2022-08-24T18:39:28.632Z,98639.50
2022-08-24T18:41:57.536Z,98643.59
2022-08-24T18:44:27.231Z,98648.75
2022-08-24T18:46:57.780Z,98645.59
2022-08-24T18:49:24.406Z,98643.75
2022-08-24T18:51:51.070Z,98647.34
2022-08-24T18:54:20.605Z,98645.78
2022-08-24T18:56:47.882Z,98650.94
2022-08-24T18:59:16.699Z,98645.84
2022-08-24T19:02:00.028Z,98650.78
2022-08-24T19:04:32.907Z,98654.94
2022-08-24T19:07:03.593Z,98653.91
2022-08-24T19:09:34.187Z,98652.00
2022-08-24T19:12:02.580Z,98653.66
2022-08-24T19:14:29.270Z,98654.81
2022-08-24T19:16:55.818Z,98645.94
2022-08-24T19:19:22.579Z,98641.69
2022-08-24T19:21:49.492Z,98649.03
2022-08-24T19:24:19.285Z,98648.19
2022-08-24T19:26:45.918Z,98648.78
2022-08-24T19:29:12.590Z,98647.81
2022-08-24T19:31:39.329Z,98645.34
2022-08-24T19:34:06.715Z,98643.97
2022-08-24T19:36:33.465Z,98653.19
2022-08-24T19:39:00.223Z,98655.88
2022-08-24T19:41:36.598Z,98650.25
2022-08-24T19:44:27.590Z,98650.03
2022-08-24T19:46:55.687Z,98656.22
2022-08-24T19:49:22.919Z,98656.53
2022-08-24T19:51:50.922Z,98665.22
2022-08-24T19:54:17.698Z,98667.69
2022-08-24T19:56:45.413Z,98669.34
2022-08-24T19:59:24.682Z,98677.47
2022-08-24T20:01:51.415Z,98682.09
2022-08-24T20:04:18.101Z,98676.47
2022-08-24T20:06:45.765Z,98672.44
2022-08-24T20:09:12.426Z,98673.56
2022-08-24T20:11:39.556Z,98678.97
2022-08-24T20:14:07.158Z,98685.44
2022-08-24T20:16:37.871Z,98680.63
2022-08-24T20:19:05.582Z,98683.03
2022-08-24T20:21:32.470Z,98684.91
2022-08-24T20:24:00.768Z,98684.91
2022-08-24T20:26:32.059Z,98689.78
2022-08-24T20:28:59.098Z,98683.13
2022-08-24T20:31:28.615Z,98680.75
2022-08-24T20:33:57.154Z,98679.13
2022-08-24T20:36:27.241Z,98682.09
2022-08-24T20:38:56.595Z,98685.88
2022-08-24T20:41:23.700Z,98680.53
2022-08-24T20:43:50.346Z,98680.53
2022-08-24T20:46:17.113Z,98679.25
2022-08-24T20:48:44.979Z,98672.25
2022-08-24T20:51:12.282Z,98676.03
2022-08-24T20:53:38.911Z,98667.09
2022-08-24T20:56:10.251Z,98676.84
2022-08-24T20:58:39.125Z,98680.66
2022-08-24T21:01:07.481Z,98676.91
2022-08-24T21:03:34.362Z,98671.81
2022-08-24T21:06:01.041Z,98681.22
2022-08-24T21:08:27.672Z,98667.78
2022-08-24T21:10:55.047Z,98666.69
2022-08-24T21:13:21.901Z,98666.19
2022-08-24T21:15:48.971Z,98665.91
2022-08-24T21:18:15.767Z,98668.31
2022-08-24T21:20:49.251Z,98666.69
2022-08-24T21:23:30.094Z,98661.84
2022-08-24T21:25:57.278Z,98661.38
2022-08-24T21:28:24.033Z,98657.94
2022-08-24T21:30:50.635Z,98656.88
2022-08-24T21:33:32.496Z,98657.97
2022-08-24T21:35:59.486Z,98657.16
2022-08-24T21:38:26.975Z,98663.06
2022-08-24T21:40:54.371Z,98656.94
2022-08-24T21:43:21.744Z,98660.69
2022-08-24T21:45:50.169Z,98649.19
2022-08-24T21:48:18.680Z,98653.25
2022-08-24T21:50:45.778Z,98651.63
2022-08-24T21:53:12.367Z,98656.47
2022-08-24T21:55:41.390Z,98656.50
2022-08-24T21:58:10.034Z,98656.19
2022-08-24T22:00:36.943Z,98651.91
2022-08-24T22:03:05.054Z,98650.56
2022-08-24T22:05:32.224Z,98646.81
2022-08-24T22:07:58.934Z,98657.00
2022-08-24T22:10:26.422Z,98660.53
2022-08-24T22:12:53.728Z,98655.69
2022-08-24T22:15:23.416Z,98662.63
2022-08-24T22:17:52.611Z,98655.41
2022-08-24T22:20:23.004Z,98665.34
2022-08-24T22:22:50.455Z,98660.78
2022-08-24T22:25:17.125Z,98663.47
2022-08-24T22:27:45.831Z,98658.66
2022-08-24T22:30:15.066Z,98657.34
2022-08-24T22:32:41.604Z,98650.34
2022-08-24T22:35:08.656Z,98657.06
2022-08-24T22:37:35.739Z,98647.69
2022-08-24T22:40:03.905Z,98643.66
2022-08-24T22:42:30.785Z,98647.69
2022-08-24T22:44:58.651Z,98647.13
2022-08-24T22:47:27.013Z,98636.69
2022-08-24T22:49:55.020Z,98636.97
2022-08-24T22:52:21.633Z,98645.00
2022-08-24T22:54:48.532Z,98638.03
2022-08-24T22:57:17.674Z,98639.34
2022-08-24T22:59:46.590Z,98635.59
2022-08-24T23:02:16.632Z,98635.09
2022-08-24T23:04:49.921Z,98631.06
2022-08-24T23:07:20.580Z,98623.81
2022-08-24T23:09:47.527Z,98624.34
2022-08-24T23:12:17.978Z,98625.94
2022-08-24T23:14:44.862Z,98624.06
2022-08-24T23:17:12.125Z,98618.44
2022-08-24T23:19:54.107Z,98615.25
2022-08-24T23:22:21.284Z,98619.00
2022-08-24T23:24:48.784Z,98619.53
2022-08-24T23:27:17.328Z,98612.28
2022-08-24T23:29:44.663Z,98610.34
2022-08-24T23:32:12.036Z,98603.91
2022-08-24T23:34:38.859Z,98598.34
2022-08-24T23:37:05.919Z,98597.47
2022-08-24T23:39:32.608Z,98599.31
2022-08-24T23:41:59.470Z,98595.88
2022-08-24T23:44:28.714Z,98600.41
2022-08-24T23:46:58.044Z,98590.22
2022-08-24T23:49:25.766Z,98592.38
2022-08-24T23:51:52.937Z,98590.78
2022-08-24T23:54:20.698Z,98587.56
2022-08-24T23:56:48.739Z,98593.16
2022-08-24T23:59:19.414Z,98593.97
